Time;durP1;ratioP1;P1;durP2;ratioP2;P2;SDS_P1;SDS_P2;PMS_P1;PMS_P2;Temp;Humidity;BMP_temperature;BMP_pressure;BME280_temperature;BME280_humidity;BME280_pressure;Samples;Min_cycle;Max_cycle;Signal;HPM_P1;HPM_P2
2022/05/20 16:52:59;;;;;;;;;10.33;9.67;;;;;-147.17;100.00;-15917.19;5085802;27;51819;-66
2022/05/20 16:55:26;;;;;;;;;8.67;8.00;;;;;-147.17;100.00;-15917.19;5069039;27;51446;-65
2022/05/20 17:03:21;;;;;;;;;4.00;3.00;;;;;-147.17;100.00;-15917.19;5068663;27;51439;-67
2022/05/20 17:05:46;;;;;;;;;3.00;3.00;;;;;-147.17;100.00;-15917.19;5069361;27;51253;-64
2022/05/20 17:08:13;;;;;;;;;6.00;5.00;;;;;-147.17;100.00;-15917.19;5067057;27;51586;-65
2022/05/20 17:10:39;;;;;;;;;5.33;4.00;;;;;-147.17;100.00;-15917.19;5067431;27;52959;-68
2022/05/20 17:13:17;;;;;;;;;7.67;5.67;;;;;-147.17;100.00;-15917.19;5067733;27;51256;-67
2022/05/20 17:15:43;;;;;;;;;6.33;6.00;;;;;-147.17;100.00;-15917.19;5068806;27;51629;-67
2022/05/20 17:18:08;;;;;;;;;5.33;4.00;;;;;-147.17;100.00;-15917.19;5068408;27;53213;-66
2022/05/20 17:20:34;;;;;;;;;7.67;7.00;;;;;-147.17;100.00;-15917.19;5065836;27;53036;-66
2022/05/20 17:25:48;;;;;;;;;5.00;5.00;;;;;-147.17;100.00;59696.56;5047803;27;51496;-67
2022/05/20 17:28:16;;;;;;;;;5.00;4.67;;;;;-147.17;100.00;59696.56;5069312;27;51494;-66
2022/05/20 17:30:42;;;;;;;;;9.33;7.33;;;;;-147.17;100.00;59696.56;5068398;27;53704;-67
2022/05/20 17:33:07;;;;;;;;;6.33;6.33;;;;;-147.17;100.00;59696.56;5070231;27;51303;-66
2022/05/20 17:35:33;;;;;;;;;9.00;8.00;;;;;-147.17;100.00;59696.56;5071202;27;51728;-67
2022/05/20 17:37:58;;;;;;;;;8.00;7.00;;;;;-147.17;100.00;59696.56;5069005;27;51503;-67
2022/05/20 17:40:24;;;;;;;;;6.00;5.67;;;;;-147.17;100.00;59696.56;5070329;27;52576;-66
2022/05/20 17:42:49;;;;;;;;;6.00;5.00;;;;;-147.17;100.00;59696.56;5068027;27;51244;-67
2022/05/20 17:45:15;;;;;;;;;11.00;7.00;;;;;-147.17;100.00;59696.56;5069829;27;51231;-66
2022/05/20 17:47:40;;;;;;;;;8.00;7.00;;;;;-147.17;100.00;59696.56;5069705;27;51234;-67
2022/05/20 17:50:07;;;;;;;;;4.33;4.00;;;;;-147.17;100.00;59696.56;5069594;27;51756;-67
2022/05/20 17:52:33;;;;;;;;;4.67;4.33;;;;;-147.17;100.00;59696.56;5068727;27;51200;-67
2022/05/20 17:54:59;;;;;;;;;7.67;6.67;;;;;-147.17;100.00;59696.56;5069624;27;51376;-66
2022/05/20 17:57:25;;;;;;;;;10.33;9.33;;;;;-147.17;100.00;59696.56;5085652;27;51768;-66
2022/05/20 17:59:51;;;;;;;;;7.00;7.00;;;;;-147.17;100.00;59696.56;5068643;27;51897;-67
2022/05/20 18:02:18;;;;;;;;;4.00;4.00;;;;;-147.17;100.00;59696.56;5066693;27;53593;-66
2022/05/20 18:04:43;;;;;;;;;9.33;8.67;;;;;-147.17;100.00;59696.56;5055633;27;51228;-67
2022/05/20 18:07:09;;;;;;;;;6.00;5.67;;;;;-147.17;100.00;59696.56;5056364;27;51532;-68
2022/05/20 18:09:35;;;;;;;;;8.00;8.00;;;;;-147.17;100.00;59696.56;5053627;27;52722;-67
2022/05/20 18:12:14;;;;;;;;;7.33;6.67;;;;;-147.17;100.00;59696.56;5056407;27;51981;-66
2022/05/20 18:14:50;;;;;;;;;5.00;5.00;;;;;-147.17;100.00;59696.56;5055795;27;51354;-67
2022/05/20 18:17:19;;;;;;;;;1.00;1.00;;;;;-147.17;100.00;59696.56;5054963;27;51362;-67
2022/05/20 18:19:44;;;;;;;;;6.00;6.00;;;;;-147.17;100.00;59696.56;5055895;27;51488;-68
2022/05/20 18:22:11;;;;;;;;;5.67;5.67;;;;;-147.17;100.00;59696.56;5055460;27;51348;-65
2022/05/20 18:24:45;;;;;;;;;5.00;5.00;;;;;-147.17;100.00;59696.56;5055947;27;51339;-66
2022/05/20 18:27:12;;;;;;;;;5.00;5.00;;;;;-147.17;100.00;59696.56;5055919;27;53397;-66
2022/05/20 18:29:40;;;;;;;;;4.00;4.00;;;;;-147.17;100.00;59696.56;5053669;27;52946;-67
2022/05/20 18:32:07;;;;;;;;;6.00;6.00;;;;;-147.17;100.00;59696.56;5069663;27;51214;-66
2022/05/20 18:40:03;;;;;;;;;9.00;9.00;;;;;-147.17;100.00;59696.56;5055188;27;51772;-67
2022/05/20 18:42:29;;;;;;;;;16.33;16.00;;;;;-147.17;100.00;59696.56;5054832;27;51265;-65
2022/05/20 18:44:54;;;;;;;;;8.00;7.00;;;;;-147.17;100.00;59696.56;5056657;27;51147;-66
2022/05/20 18:47:23;;;;;;;;;4.67;4.67;;;;;-147.17;100.00;59696.56;5054800;27;51602;-67
2022/05/20 18:49:53;;;;;;;;;17.50;15.75;;;;;-147.17;100.00;59696.56;5054634;27;52132;-65
2022/05/20 18:52:20;;;;;;;;;11.00;11.00;;;;;-147.17;100.00;59696.56;5054493;27;52633;-66
2022/05/20 18:54:46;;;;;;;;;10.00;7.67;;;;;-147.17;100.00;59696.56;5053550;27;51302;-67
2022/05/20 18:57:14;;;;;;;;;11.33;10.67;;;;;-147.17;100.00;59696.56;5048280;27;53019;-65
2022/05/20 18:59:40;;;;;;;;;9.33;9.33;;;;;-147.17;100.00;59696.56;5046185;27;52541;-66
2022/05/20 19:02:09;;;;;;;;;9.33;8.67;;;;;-147.17;100.00;59696.56;5046485;27;51435;-65
2022/05/20 19:04:35;;;;;;;;;10.67;10.00;;;;;-147.17;100.00;59696.56;5048894;27;53020;-66
2022/05/20 19:07:00;;;;;;;;;6.33;6.33;;;;;-147.17;100.00;59696.56;5049060;27;52882;-68
2022/05/20 19:09:25;;;;;;;;;8.00;7.67;;;;;-147.17;100.00;59696.56;5045168;27;51835;-69
2022/05/20 19:11:51;;;;;;;;;9.00;7.67;;;;;-147.17;100.00;59696.56;5046263;27;51421;-67
2022/05/20 19:14:17;;;;;;;;;7.67;7.00;;;;;-147.17;100.00;59696.56;5044593;27;53510;-68
2022/05/20 19:16:43;;;;;;;;;8.67;7.67;;;;;-147.17;100.00;59696.56;5046753;27;52038;-66
2022/05/20 19:19:09;;;;;;;;;7.67;7.67;;;;;-147.17;100.00;59696.56;5047013;27;51672;-74
2022/05/20 19:21:35;;;;;;;;;10.67;9.33;;;;;-147.17;100.00;59696.56;5036846;27;51448;-68
2022/05/20 19:24:01;;;;;;;;;9.67;8.33;;;;;-147.17;100.00;59696.56;5035873;27;53112;-63
2022/05/20 19:26:26;;;;;;;;;5.00;5.00;;;;;-147.17;100.00;59696.56;5037698;27;52226;-66
2022/05/20 19:28:52;;;;;;;;;9.00;7.33;;;;;-147.17;100.00;59696.56;5037265;27;51715;-66
2022/05/20 19:31:18;;;;;;;;;8.00;8.00;;;;;-147.17;100.00;59696.56;5038204;27;51886;-67
2022/05/20 19:33:43;;;;;;;;;13.33;13.33;;;;;-147.17;100.00;59696.56;5038237;27;51282;-67
2022/05/20 19:36:09;;;;;;;;;7.33;6.67;;;;;-147.17;100.00;59696.56;5039373;27;52319;-67
2022/05/20 19:38:36;;;;;;;;;7.33;7.33;;;;;-147.17;100.00;59696.56;5038133;27;51691;-66
2022/05/20 19:41:03;;;;;;;;;9.00;9.00;;;;;-147.17;100.00;59696.56;5045059;27;51246;-67
2022/05/20 19:43:29;;;;;;;;;12.67;11.33;;;;;-147.17;100.00;59696.56;5044688;27;51727;-66
2022/05/20 19:45:54;;;;;;;;;7.33;7.33;;;;;-147.17;100.00;59696.56;5043388;27;51226;-65
2022/05/20 19:48:20;;;;;;;;;9.67;8.00;;;;;-147.17;100.00;59696.56;5049715;27;52705;-65
2022/05/20 19:50:47;;;;;;;;;10.00;9.33;;;;;-147.17;100.00;59696.56;5047777;27;51325;-65
2022/05/20 19:53:14;;;;;;;;;14.00;13.33;;;;;-147.17;100.00;59696.56;5040760;27;51531;-66
2022/05/20 19:55:42;;;;;;;;;8.00;8.00;;;;;-147.17;100.00;59696.56;5045137;27;52511;-66
2022/05/20 20:00:53;;;;;;;;;9.00;9.00;;;;;-147.17;100.00;59696.56;5049461;27;51205;-67
2022/05/20 20:03:23;;;;;;;;;12.33;12.33;;;;;-147.17;100.00;59696.56;5045162;27;51383;-65
2022/05/20 20:05:49;;;;;;;;;61.00;50.00;;;;;-147.17;100.00;59696.56;5049190;27;52428;-66
2022/05/20 20:08:15;;;;;;;;;19.00;15.50;;;;;-147.17;100.00;59696.56;5040309;27;51883;-66
2022/05/20 20:10:42;;;;;;;;;13.00;13.00;;;;;-147.17;100.00;59696.56;5046141;27;51892;-66
2022/05/20 20:13:09;;;;;;;;;16.75;15.00;;;;;-147.17;100.00;59696.56;5049397;27;53471;-65
2022/05/20 20:15:36;;;;;;;;;18.00;17.25;;;;;-147.17;100.00;59696.56;5049083;27;51199;-65
2022/05/20 20:18:01;;;;;;;;;9.67;9.67;;;;;-147.17;100.00;59696.56;5045768;27;51447;-64
2022/05/20 20:20:27;;;;;;;;;12.00;11.33;;;;;-147.17;100.00;59696.56;5048728;27;51194;-65
2022/05/20 20:28:22;;;;;;;;;11.00;10.67;;;;;-147.17;100.00;59696.56;5043519;27;52594;-65
2022/05/20 20:30:49;;;;;;;;;10.33;9.67;;;;;-147.17;100.00;59696.56;5048908;27;51334;-65
2022/05/20 20:33:15;;;;;;;;;9.33;9.33;;;;;-147.17;100.00;59696.56;5043836;27;51804;-64
2022/05/20 20:35:41;;;;;;;;;10.00;9.00;;;;;-147.17;100.00;59696.56;5048158;27;51871;-64
2022/05/20 20:38:06;;;;;;;;;9.00;8.67;;;;;-147.17;100.00;59696.56;5044441;27;51982;-62
2022/05/20 20:40:31;;;;;;;;;5.67;5.33;;;;;-147.17;100.00;59696.56;5048731;27;51278;-61
2022/05/20 20:42:59;;;;;;;;;8.33;7.00;;;;;-147.17;100.00;59696.56;5044361;27;51675;-62
2022/05/20 20:45:24;;;;;;;;;12.00;11.00;;;;;-147.17;100.00;59696.56;5046169;27;51363;-63
2022/05/20 20:47:49;;;;;;;;;6.67;6.67;;;;;-147.17;100.00;59696.56;5065712;27;52606;-64
2022/05/20 20:50:15;;;;;;;;;9.00;8.00;;;;;-147.17;100.00;59696.56;5045773;27;51415;-63
2022/05/20 20:52:41;;;;;;;;;6.00;6.00;;;;;-147.17;100.00;59696.56;5048660;27;52208;-64
2022/05/20 20:55:07;;;;;;;;;7.00;7.00;;;;;-147.17;100.00;59696.56;5043093;27;52946;-74
2022/05/20 20:57:33;;;;;;;;;7.00;6.00;;;;;-147.17;100.00;59696.56;5048022;27;53178;-67
2022/05/20 20:59:59;;;;;;;;;70.25;63.75;;;;;-147.17;100.00;59696.56;5043157;27;52694;-64
2022/05/20 21:02:24;;;;;;;;;9.00;9.00;;;;;-147.17;100.00;59696.56;5048840;27;51318;-64
2022/05/20 21:04:49;;;;;;;;;7.33;7.00;;;;;-147.17;100.00;59696.56;5044396;27;51566;-63
2022/05/20 21:07:15;;;;;;;;;7.00;6.00;;;;;-147.17;100.00;59696.56;5047758;27;51796;-66
2022/05/20 21:09:41;;;;;;;;;4.33;4.33;;;;;-147.17;100.00;59696.56;5043586;27;52921;-66
2022/05/20 21:12:23;;;;;;;;;6.67;6.00;;;;;-147.17;100.00;59696.56;5049287;27;51489;-64
2022/05/20 21:14:57;;;;;;;;;9.00;9.00;;;;;-147.17;100.00;59696.56;5044454;27;51469;-61
2022/05/20 21:17:23;;;;;;;;;13.33;13.33;;;;;-147.17;100.00;59696.56;5050107;27;51968;-63
2022/05/20 21:19:48;;;;;;;;;9.33;8.67;;;;;-147.17;100.00;59696.56;5042870;27;52156;-62
2022/05/20 21:22:16;;;;;;;;;8.00;7.00;;;;;-147.17;100.00;59696.56;5048808;27;51224;-66
2022/05/20 21:24:42;;;;;;;;;11.00;10.00;;;;;-147.17;100.00;59696.56;5045320;27;52834;-69
2022/05/20 21:27:09;;;;;;;;;15.00;13.67;;;;;-147.17;100.00;59696.56;5046651;27;51169;-64
2022/05/20 21:29:35;;;;;;;;;17.00;15.33;;;;;-147.17;100.00;59696.56;5043135;27;51241;-64
2022/05/20 21:32:01;;;;;;;;;21.75;18.25;;;;;-147.17;100.00;59696.56;5048471;27;51164;-64
2022/05/20 21:34:31;;;;;;;;;14.67;14.00;;;;;-147.17;100.00;59696.56;5040139;27;51766;-65
2022/05/20 21:36:56;;;;;;;;;8.67;8.67;;;;;-147.17;100.00;59696.56;5046665;27;51700;-66
2022/05/20 21:39:23;;;;;;;;;11.00;10.67;;;;;-147.17;100.00;59696.56;5045182;27;52115;-65
2022/05/20 21:41:48;;;;;;;;;9.67;9.33;;;;;-147.17;100.00;59696.56;5051169;27;51357;-64
2022/05/20 21:44:14;;;;;;;;;15.75;15.25;;;;;-147.17;100.00;59696.56;5047497;27;53035;-65
2022/05/20 21:46:48;;;;;;;;;10.67;9.00;;;;;-147.17;100.00;59696.56;5049176;27;52717;-63
2022/05/20 21:49:20;;;;;;;;;16.00;15.33;;;;;-147.17;100.00;59696.56;5044471;27;53742;-62
2022/05/20 21:51:47;;;;;;;;;9.33;9.00;;;;;-147.17;100.00;59696.56;5050491;27;52936;-75
2022/05/20 21:54:13;;;;;;;;;8.67;8.00;;;;;-147.17;100.00;59696.56;5047980;27;51340;-74
2022/05/20 21:56:40;;;;;;;;;9.75;9.75;;;;;-147.17;100.00;59696.56;5049015;27;51337;-67
2022/05/20 21:59:09;;;;;;;;;7.33;6.67;;;;;-147.17;100.00;59696.56;5049229;27;51882;-72
2022/05/20 22:09:54;;;;;;;;;12.33;11.67;;;;;-147.17;100.00;59696.56;5046370;27;52711;-69
2022/05/20 22:12:22;;;;;;;;;15.75;15.75;;;;;-147.17;100.00;59696.56;5050542;27;51243;-65
2022/05/20 22:14:48;;;;;;;;;11.25;10.75;;;;;-147.17;100.00;59696.56;5044570;27;51267;-66
2022/05/20 22:17:14;;;;;;;;;24.00;22.00;;;;;-147.17;100.00;59696.56;5052193;27;54122;-65
2022/05/20 22:19:39;;;;;;;;;7.67;7.00;;;;;-147.17;100.00;59696.56;5046890;27;51190;-63
2022/05/20 22:22:05;;;;;;;;;9.00;9.00;;;;;-147.17;100.00;59696.56;5051652;27;51502;-68
2022/05/20 22:24:32;;;;;;;;;9.67;9.00;;;;;-147.17;100.00;59696.56;5046772;27;53241;-70
2022/05/20 22:27:00;;;;;;;;;11.00;9.00;;;;;-147.17;100.00;59696.56;5047227;27;52002;-68
2022/05/20 22:29:26;;;;;;;;;15.33;13.00;;;;;-147.17;100.00;59696.56;5052953;27;51267;-73
2022/05/20 22:31:52;;;;;;;;;10.00;9.33;;;;;-147.17;100.00;59696.56;5046952;27;51416;-71
2022/05/20 22:34:20;;;;;;;;;6.33;6.33;;;;;-147.17;100.00;59696.56;5052247;27;52752;-72
2022/05/20 22:36:46;;;;;;;;;13.25;11.50;;;;;-147.17;100.00;59696.56;5051733;27;51298;-68
2022/05/20 22:39:12;;;;;;;;;8.67;8.33;;;;;-147.17;100.00;59696.56;5051559;27;53899;-71
2022/05/20 22:41:37;;;;;;;;;10.00;10.00;;;;;-147.17;100.00;59696.56;5047914;27;51181;-71
2022/05/20 22:44:03;;;;;;;;;8.33;7.33;;;;;-147.17;100.00;59696.56;5052691;27;51431;-71
2022/05/20 22:46:29;;;;;;;;;7.00;7.00;;;;;-147.17;100.00;59696.56;5049510;27;51275;-72
2022/05/20 22:48:54;;;;;;;;;13.50;12.50;;;;;-147.17;100.00;59696.56;5051498;27;51746;-75
2022/05/20 22:51:20;;;;;;;;;7.00;6.67;;;;;-147.17;100.00;59696.56;5052574;27;51372;-72
2022/05/20 22:53:45;;;;;;;;;10.25;9.50;;;;;-147.17;100.00;59696.56;5044068;27;51422;-72
2022/05/20 22:56:15;;;;;;;;;13.25;13.00;;;;;-147.17;100.00;59696.56;5051421;27;51814;-72
2022/05/20 22:58:48;;;;;;;;;8.00;8.00;;;;;-147.17;100.00;59696.56;5029813;28;51118;-73
2022/05/20 23:01:22;;;;;;;;;3.00;3.00;;;;;-147.17;100.00;59696.56;5066328;27;51714;-72
2022/05/20 23:03:49;;;;;;;;;6.33;6.00;;;;;-147.17;100.00;59696.56;5045558;27;51324;-77
2022/05/20 23:06:15;;;;;;;;;7.00;7.00;;;;;-147.17;100.00;59696.56;5065773;27;53346;-70
2022/05/20 23:08:41;;;;;;;;;8.33;6.67;;;;;-147.17;100.00;59696.56;5047061;27;51737;-71
2022/05/20 23:11:09;;;;;;;;;22.75;20.00;;;;;-147.17;100.00;59696.56;5051078;27;51214;-72
2022/05/20 23:13:35;;;;;;;;;26.75;23.00;;;;;-147.17;100.00;59696.56;5044271;27;51378;-75
2022/05/20 23:16:04;;;;;;;;;17.75;16.00;;;;;-147.17;100.00;59696.56;5047967;27;52070;-71
2022/05/20 23:18:29;;;;;;;;;8.33;6.67;;;;;-147.17;100.00;59696.56;5049619;27;51471;-70
2022/05/20 23:20:54;;;;;;;;;6.67;6.67;;;;;-147.17;100.00;59696.56;5045643;27;51246;-73
2022/05/20 23:23:23;;;;;;;;;29.00;28.00;;;;;-147.17;100.00;59696.56;5050019;27;51389;-75
2022/05/20 23:25:51;;;;;;;;;8.00;6.00;;;;;-147.17;100.00;59696.56;5047667;27;51406;-71
2022/05/20 23:28:17;;;;;;;;;11.75;10.75;;;;;-147.17;100.00;59696.56;5045767;27;51294;-72
2022/05/20 23:30:43;;;;;;;;;8.00;6.67;;;;;-147.17;100.00;59696.56;5052214;27;51476;-71
2022/05/20 23:33:10;;;;;;;;;11.67;10.33;;;;;-147.17;100.00;59696.56;5045255;27;53722;-73
2022/05/20 23:35:36;;;;;;;;;8.67;7.00;;;;;-147.17;100.00;59696.56;5050985;27;51202;-69
2022/05/20 23:38:02;;;;;;;;;14.75;13.75;;;;;-147.17;100.00;59696.56;5045888;27;52321;-72
2022/05/20 23:40:28;;;;;;;;;7.00;6.00;;;;;-147.17;100.00;59696.56;5049371;27;52937;-73
2022/05/20 23:42:54;;;;;;;;;10.50;9.50;;;;;-147.17;100.00;59696.56;5027880;27;51420;-72
2022/05/20 23:45:19;;;;;;;;;8.00;7.33;;;;;-147.17;100.00;59696.56;5048410;27;53017;-73
2022/05/20 23:47:45;;;;;;;;;7.67;7.00;;;;;-147.17;100.00;59696.56;5045656;27;52972;-70
2022/05/20 23:50:13;;;;;;;;;10.75;9.25;;;;;-147.17;100.00;59696.56;5046954;27;51472;-67
2022/05/20 23:52:39;;;;;;;;;9.67;8.00;;;;;-147.17;100.00;59696.56;5041909;27;51761;-69
2022/05/20 23:57:51;;;;;;;;;7.75;6.75;;;;;-147.17;100.00;59696.56;5048094;27;51298;-74
